Time;durP1;ratioP1;P1;durP2;ratioP2;P2;SDS_P1;SDS_P2;PMS_P1;PMS_P2;Temp;Humidity;BMP_temperature;BMP_pressure;BME280_temperature;BME280_humidity;BME280_pressure;Samples;Min_cycle;Max_cycle;Signal;HPM_P1;HPM_P2
2023/02/16 00:00:43;;;;;;;17.70;6.93;;;;;;;;;;5061364;28;20083;-73
2023/02/16 00:03:14;;;;;;;18.10;7.93;;;;;;;;;;5064951;28;20052;-74
2023/02/16 00:05:40;;;;;;;20.42;7.97;;;;;;;;;;5053045;28;20033;-73
2023/02/16 00:08:06;;;;;;;19.23;7.00;;;;;;;;;;5052011;28;20037;-73
2023/02/16 00:10:33;;;;;;;14.32;6.55;;;;;;;;;;5064592;28;20031;-73
2023/02/16 00:15:44;;;;;;;23.45;7.32;;;;;;;;;;5063788;28;20044;-73
2023/02/16 00:18:20;;;;;;;16.30;6.25;;;;;;;;;;5056166;28;20665;-73
2023/02/16 00:20:46;;;;;;;29.48;10.98;;;;;;;;;;5060293;28;20040;-74
2023/02/16 00:23:12;;;;;;;24.13;12.32;;;;;;;;;;5067572;28;20698;-73
2023/02/16 00:25:38;;;;;;;14.98;6.57;;;;;;;;;;5064972;28;20036;-73
2023/02/16 00:28:06;;;;;;;13.50;7.13;;;;;;;;;;5058772;28;20032;-73
2023/02/16 00:30:32;;;;;;;15.68;7.50;;;;;;;;;;5058409;28;20071;-73
2023/02/16 00:33:00;;;;;;;12.27;5.75;;;;;;;;;;5061969;28;20329;-73
2023/02/16 00:35:27;;;;;;;10.05;5.88;;;;;;;;;;5063456;28;20032;-73
2023/02/16 00:37:53;;;;;;;12.30;6.45;;;;;;;;;;5052451;28;20495;-73
2023/02/16 00:40:19;;;;;;;13.63;6.20;;;;;;;;;;5064007;28;20409;-74
2023/02/16 00:42:46;;;;;;;15.23;7.10;;;;;;;;;;5067898;28;20500;-74
2023/02/16 00:45:16;;;;;;;11.73;6.65;;;;;;;;;;5065462;28;20535;-74
2023/02/16 00:47:42;;;;;;;18.60;8.43;;;;;;;;;;5059901;28;20032;-74
2023/02/16 00:50:17;;;;;;;23.10;11.32;;;;;;;;;;5056231;28;20208;-73
2023/02/16 00:52:47;;;;;;;22.75;8.93;;;;;;;;;;5050682;28;20041;-73
2023/02/16 00:55:15;;;;;;;18.40;7.97;;;;;;;;;;5062638;28;20056;-73
2023/02/16 00:58:07;;;;;;;22.52;8.73;;;;;;;;;;5059276;28;20032;-73
2023/02/16 01:00:35;;;;;;;39.53;18.38;;;;;;;;;;5048500;28;20045;-73
2023/02/16 01:03:04;;;;;;;25.35;10.23;;;;;;;;;;5060558;28;20048;-73
2023/02/16 01:05:30;;;;;;;14.40;6.47;;;;;;;;;;5064351;28;20040;-73
2023/02/16 01:11:06;;;;;;;10.38;5.28;;;;;;;;;;5050852;28;20098;-73
2023/02/16 01:13:32;;;;;;;13.20;5.25;;;;;;;;;;5064968;28;20112;-74
2023/02/16 01:15:58;;;;;;;20.73;8.95;;;;;;;;;;5062433;28;20033;-73
2023/02/16 01:18:24;;;;;;;48.53;21.30;;;;;;;;;;5064214;28;20043;-73
2023/02/16 01:20:50;;;;;;;22.10;8.73;;;;;;;;;;5066630;28;20107;-73
2023/02/16 01:23:16;;;;;;;22.38;9.55;;;;;;;;;;5055092;28;20051;-73
2023/02/16 01:25:42;;;;;;;17.35;7.45;;;;;;;;;;5059584;28;20036;-74
2023/02/16 01:28:19;;;;;;;15.05;6.05;;;;;;;;;;5057770;28;20033;-73
2023/02/16 01:30:46;;;;;;;15.63;6.47;;;;;;;;;;5060683;28;20218;-73
2023/02/16 01:33:12;;;;;;;18.52;7.53;;;;;;;;;;5066172;28;20046;-73
2023/02/16 01:35:38;;;;;;;17.60;8.07;;;;;;;;;;5063011;28;20437;-74
2023/02/16 01:38:04;;;;;;;19.27;9.48;;;;;;;;;;5059273;28;20039;-73
2023/02/16 01:40:30;;;;;;;20.52;9.77;;;;;;;;;;5064566;28;20412;-74
2023/02/16 01:43:01;;;;;;;24.17;9.93;;;;;;;;;;5058664;28;20033;-73
2023/02/16 01:45:34;;;;;;;24.08;11.57;;;;;;;;;;5063086;28;20029;-73
2023/02/16 01:48:03;;;;;;;16.48;7.03;;;;;;;;;;5066291;28;20033;-73
2023/02/16 01:50:39;;;;;;;18.90;5.05;;;;;;;;;;5061447;28;20050;-73
2023/02/16 01:53:15;;;;;;;11.10;4.80;;;;;;;;;;5066950;28;20024;-73
2023/02/16 01:55:43;;;;;;;15.88;5.82;;;;;;;;;;5056488;28;20039;-73
2023/02/16 01:58:24;;;;;;;16.60;5.50;;;;;;;;;;5067786;28;20036;-73
2023/02/16 02:00:53;;;;;;;18.92;9.15;;;;;;;;;;5067132;28;20039;-73
2023/02/16 02:06:12;;;;;;;44.85;17.27;;;;;;;;;;5062470;28;20077;-73
2023/02/16 02:08:37;;;;;;;37.80;15.68;;;;;;;;;;5061358;28;20044;-73
2023/02/16 02:11:09;;;;;;;20.27;7.85;;;;;;;;;;5061061;28;20024;-73
2023/02/16 02:13:45;;;;;;;19.40;8.27;;;;;;;;;;5064377;28;20074;-73
2023/02/16 02:16:11;;;;;;;16.23;5.53;;;;;;;;;;5060773;28;20021;-74
2023/02/16 02:18:38;;;;;;;11.23;4.60;;;;;;;;;;5061502;28;20044;-73
2023/02/16 02:24:20;;;;;;;13.45;5.50;;;;;;;;;;5018475;28;20107;-73
2023/02/16 02:26:46;;;;;;;12.95;5.38;;;;;;;;;;5055572;28;20730;-74
2023/02/16 02:29:12;;;;;;;13.27;4.50;;;;;;;;;;5060883;28;20082;-73
2023/02/16 02:31:50;;;;;;;11.15;4.30;;;;;;;;;;5062456;28;20589;-73
2023/02/16 02:34:23;;;;;;;16.63;4.53;;;;;;;;;;5054916;28;20040;-73
2023/02/16 02:37:14;;;;;;;12.32;5.18;;;;;;;;;;5054986;28;20055;-73
2023/02/16 02:39:56;;;;;;;13.90;4.80;;;;;;;;;;5051578;28;20033;-73
2023/02/16 02:42:31;;;;;;;10.75;4.85;;;;;;;;;;5054611;28;20033;-73
2023/02/16 02:45:00;;;;;;;12.95;4.88;;;;;;;;;;5055133;28;20033;-73
2023/02/16 02:47:43;;;;;;;12.43;5.13;;;;;;;;;;5066523;28;20748;-73
2023/02/16 02:51:27;;;;;;;18.65;6.95;;;;;;;;;;5053212;28;20045;-73
2023/02/16 02:53:27;;;;;;;12.77;5.70;;;;;;;;;;5004365;28;20821;-73
2023/02/16 03:01:23;;;;;;;12.30;4.78;;;;;;;;;;5061560;28;20122;-73
2023/02/16 03:03:51;;;;;;;14.57;6.35;;;;;;;;;;5062862;28;20052;-73
2023/02/16 03:06:19;;;;;;;15.07;5.78;;;;;;;;;;5064990;28;20041;-73
2023/02/16 03:08:47;;;;;;;40.80;16.25;;;;;;;;;;5066637;28;20485;-73
2023/02/16 03:14:25;;;;;;;13.75;6.00;;;;;;;;;;5060680;28;20120;-73
2023/02/16 03:30:41;;;;;;;19.08;6.75;;;;;;;;;;5056661;28;20090;-73
2023/02/16 03:33:07;;;;;;;29.00;10.82;;;;;;;;;;5061224;28;20028;-73
2023/02/16 03:35:33;;;;;;;26.08;9.68;;;;;;;;;;5056726;28;20055;-73
2023/02/16 03:37:59;;;;;;;22.90;8.90;;;;;;;;;;5069522;28;20454;-73
2023/02/16 03:40:29;;;;;;;18.23;7.75;;;;;;;;;;5068968;28;20070;-73
2023/02/16 03:42:56;;;;;;;17.67;6.20;;;;;;;;;;5062567;28;20056;-73
2023/02/16 03:45:22;;;;;;;11.52;4.63;;;;;;;;;;5063888;28;20052;-73
2023/02/16 03:47:48;;;;;;;17.13;5.93;;;;;;;;;;5063255;28;20089;-73
2023/02/16 03:50:15;;;;;;;14.25;5.97;;;;;;;;;;5062094;28;20033;-73
2023/02/16 03:52:41;;;;;;;15.43;6.07;;;;;;;;;;5068753;28;20055;-73
2023/02/16 03:55:07;;;;;;;17.63;5.82;;;;;;;;;;5069517;28;20478;-74
2023/02/16 03:57:33;;;;;;;19.48;7.07;;;;;;;;;;5068258;28;20047;-73
2023/02/16 03:59:59;;;;;;;28.95;11.65;;;;;;;;;;5055481;28;20128;-73
2023/02/16 04:02:26;;;;;;;25.65;11.32;;;;;;;;;;5065946;28;20076;-73
2023/02/16 04:04:52;;;;;;;27.08;11.20;;;;;;;;;;5067684;28;20042;-73
2023/02/16 04:07:18;;;;;;;25.25;12.35;;;;;;;;;;5066551;28;20044;-73
2023/02/16 04:09:44;;;;;;;22.25;9.98;;;;;;;;;;5058003;28;20032;-73
2023/02/16 04:14:56;;;;;;;15.52;6.50;;;;;;;;;;5057939;28;20418;-73
2023/02/16 04:17:23;;;;;;;14.73;6.22;;;;;;;;;;5058588;28;20037;-73
2023/02/16 04:19:49;;;;;;;12.80;6.40;;;;;;;;;;5062816;28;20043;-73
2023/02/16 04:22:15;;;;;;;15.27;6.88;;;;;;;;;;5063781;28;20029;-73
2023/02/16 04:24:40;;;;;;;14.45;7.20;;;;;;;;;;5059424;28;20532;-73
2023/02/16 04:27:06;;;;;;;28.17;13.75;;;;;;;;;;5056759;28;20068;-73
2023/02/16 04:29:32;;;;;;;24.83;11.35;;;;;;;;;;5061195;28;20936;-73
2023/02/16 04:31:58;;;;;;;20.15;9.73;;;;;;;;;;5067886;28;20085;-73
2023/02/16 04:34:24;;;;;;;16.73;8.20;;;;;;;;;;5053912;28;20039;-73
2023/02/16 04:36:50;;;;;;;15.50;7.00;;;;;;;;;;5057735;28;20033;-73
2023/02/16 04:39:16;;;;;;;17.80;7.47;;;;;;;;;;5062194;28;20066;-74
2023/02/16 04:41:42;;;;;;;11.68;5.28;;;;;;;;;;5063880;28;20029;-74
2023/02/16 04:44:08;;;;;;;13.00;5.95;;;;;;;;;;5060123;28;20075;-73
2023/02/16 04:46:34;;;;;;;15.27;6.40;;;;;;;;;;5061073;28;20060;-73
2023/02/16 04:49:00;;;;;;;11.98;6.05;;;;;;;;;;5051685;28;20036;-73
2023/02/16 04:51:26;;;;;;;12.95;6.10;;;;;;;;;;5051815;28;20744;-73
2023/02/16 04:53:52;;;;;;;13.65;5.93;;;;;;;;;;5053246;28;20029;-73
2023/02/16 04:56:18;;;;;;;14.90;6.65;;;;;;;;;;5065363;28;20021;-73
2023/02/16 04:58:44;;;;;;;13.05;6.15;;;;;;;;;;5067154;28;20032;-73
2023/02/16 05:01:18;;;;;;;14.10;5.75;;;;;;;;;;5068177;28;20060;-73
2023/02/16 05:03:44;;;;;;;15.57;6.40;;;;;;;;;;5065968;28;20052;-73
2023/02/16 05:06:10;;;;;;;64.38;31.98;;;;;;;;;;5067877;28;20758;-73
2023/02/16 05:08:35;;;;;;;61.05;32.38;;;;;;;;;;5067418;28;20040;-73
2023/02/16 05:16:31;;;;;;;27.13;14.48;;;;;;;;;;5066294;28;20039;-73
2023/02/16 05:18:57;;;;;;;16.42;7.07;;;;;;;;;;5047137;28;20029;-73
2023/02/16 05:21:32;;;;;;;11.73;5.72;;;;;;;;;;5060983;28;20845;-73
2023/02/16 05:24:08;;;;;;;13.43;5.72;;;;;;;;;;5061776;28;20386;-73
2023/02/16 05:26:35;;;;;;;17.08;7.07;;;;;;;;;;5055970;28;20040;-73
2023/02/16 05:29:01;;;;;;;13.80;5.60;;;;;;;;;;5064943;28;20028;-73
2023/02/16 05:31:27;;;;;;;12.77;5.55;;;;;;;;;;5064248;28;20382;-73
2023/02/16 05:33:53;;;;;;;14.10;5.80;;;;;;;;;;5063488;28;20032;-73
2023/02/16 05:36:19;;;;;;;15.82;6.47;;;;;;;;;;5059411;28;20028;-73
2023/02/16 05:38:45;;;;;;;16.25;7.13;;;;;;;;;;5057973;28;20040;-73
2023/02/16 05:41:22;;;;;;;19.35;7.18;;;;;;;;;;5058239;28;20029;-73
2023/02/16 05:43:48;;;;;;;14.07;7.18;;;;;;;;;;5064029;28;20024;-73
2023/02/16 05:46:14;;;;;;;17.98;7.30;;;;;;;;;;5062880;28;20141;-73
2023/02/16 05:48:40;;;;;;;14.98;7.60;;;;;;;;;;5063439;28;20677;-73
2023/02/16 05:51:07;;;;;;;15.38;8.20;;;;;;;;;;5066009;28;20035;-73
2023/02/16 05:53:33;;;;;;;13.95;6.93;;;;;;;;;;5044020;28;20467;-73
2023/02/16 05:55:58;;;;;;;15.15;5.78;;;;;;;;;;5061027;28;20032;-73
2023/02/16 05:58:24;;;;;;;11.95;5.72;;;;;;;;;;5065042;28;20024;-73
2023/02/16 06:00:50;;;;;;;14.75;6.28;;;;;;;;;;5060292;28;20044;-73
2023/02/16 06:03:16;;;;;;;19.08;8.43;;;;;;;;;;5065093;28;20040;-73
2023/02/16 06:05:42;;;;;;;15.10;8.38;;;;;;;;;;5058986;28;20087;-73
2023/02/16 06:08:08;;;;;;;14.63;7.63;;;;;;;;;;5063471;28;20047;-73
2023/02/16 06:10:34;;;;;;;17.38;7.55;;;;;;;;;;5067583;28;20319;-73
2023/02/16 06:13:00;;;;;;;14.38;6.57;;;;;;;;;;5046893;28;20784;-74
2023/02/16 06:15:26;;;;;;;17.55;6.80;;;;;;;;;;5055923;28;20112;-73
2023/02/16 06:17:52;;;;;;;13.77;5.50;;;;;;;;;;5061593;28;20037;-73
2023/02/16 06:20:19;;;;;;;13.68;6.60;;;;;;;;;;5052540;28;20037;-73
2023/02/16 06:22:45;;;;;;;16.40;6.60;;;;;;;;;;5055338;28;20400;-73
2023/02/16 06:25:11;;;;;;;20.33;9.27;;;;;;;;;;5059249;28;20120;-73
2023/02/16 06:27:37;;;;;;;16.17;7.07;;;;;;;;;;5058653;28;20032;-72
2023/02/16 06:30:03;;;;;;;16.77;6.50;;;;;;;;;;5059034;28;20462;-73
2023/02/16 06:32:29;;;;;;;18.13;7.22;;;;;;;;;;5061165;28;20033;-73
2023/02/16 06:34:55;;;;;;;15.48;7.63;;;;;;;;;;5058586;28;20048;-73
2023/02/16 06:37:21;;;;;;;22.73;11.52;;;;;;;;;;5062823;28;20029;-73
2023/02/16 06:39:47;;;;;;;17.58;8.77;;;;;;;;;;5063141;28;20120;-73
2023/02/16 06:42:13;;;;;;;18.90;7.63;;;;;;;;;;5041387;28;20531;-72
2023/02/16 06:44:43;;;;;;;19.25;9.50;;;;;;;;;;5053790;28;20045;-74
2023/02/16 06:47:09;;;;;;;22.73;9.82;;;;;;;;;;5055991;28;20024;-72
2023/02/16 06:49:35;;;;;;;22.45;9.85;;;;;;;;;;5058914;28;20028;-74
2023/02/16 06:52:01;;;;;;;23.98;9.15;;;;;;;;;;5058114;28;20024;-74
2023/02/16 06:54:27;;;;;;;29.10;11.68;;;;;;;;;;5053756;28;20647;-72
2023/02/16 06:56:56;;;;;;;25.63;11.70;;;;;;;;;;5061682;28;20626;-72
2023/02/16 06:59:22;;;;;;;25.00;11.88;;;;;;;;;;5060275;28;20036;-73
2023/02/16 07:01:48;;;;;;;24.48;11.48;;;;;;;;;;5060467;28;20029;-72
2023/02/16 07:04:14;;;;;;;24.35;12.23;;;;;;;;;;5060216;28;20057;-72
2023/02/16 07:06:40;;;;;;;25.65;11.05;;;;;;;;;;5053208;28;20743;-72
2023/02/16 07:09:06;;;;;;;26.13;12.00;;;;;;;;;;5062136;28;20047;-72
2023/02/16 07:11:32;;;;;;;24.02;10.90;;;;;;;;;;5061225;28;20037;-72
2023/02/16 07:13:58;;;;;;;28.45;12.57;;;;;;;;;;5061174;28;20032;-72
2023/02/16 07:16:24;;;;;;;29.42;13.95;;;;;;;;;;5058476;28;20021;-73
2023/02/16 07:18:50;;;;;;;41.60;16.98;;;;;;;;;;5059251;28;20037;-74
2023/02/16 07:21:16;;;;;;;43.55;19.90;;;;;;;;;;5037191;28;20815;-74
2023/02/16 07:23:42;;;;;;;44.55;21.02;;;;;;;;;;5062927;28;20085;-73
2023/02/16 07:26:08;;;;;;;45.17;23.40;;;;;;;;;;5065130;28;20036;-72
2023/02/16 07:28:34;;;;;;;41.53;20.88;;;;;;;;;;5059034;28;21611;-72
2023/02/16 07:31:05;;;;;;;40.90;19.83;;;;;;;;;;5061514;28;20025;-72
2023/02/16 07:33:31;;;;;;;37.35;16.75;;;;;;;;;;5055537;28;20042;-74
2023/02/16 07:35:57;;;;;;;46.33;22.25;;;;;;;;;;5057071;28;20037;-73
2023/02/16 07:38:23;;;;;;;46.63;22.50;;;;;;;;;;5062178;28;20032;-73
2023/02/16 07:40:49;;;;;;;43.17;23.50;;;;;;;;;;5056814;28;20053;-72
2023/02/16 07:43:17;;;;;;;56.22;32.97;;;;;;;;;;5065700;28;20032;-74
2023/02/16 07:45:43;;;;;;;56.35;32.22;;;;;;;;;;5058738;28;20143;-71
2023/02/16 07:48:09;;;;;;;54.92;30.35;;;;;;;;;;5053023;28;20031;-72
2023/02/16 07:50:36;;;;;;;58.95;30.40;;;;;;;;;;5066635;28;20036;-74
2023/02/16 07:53:02;;;;;;;38.50;16.80;;;;;;;;;;5063633;28;20025;-74
2023/02/16 07:55:29;;;;;;;32.38;14.88;;;;;;;;;;5062854;28;20621;-74
2023/02/16 07:57:58;;;;;;;31.08;15.00;;;;;;;;;;5066312;28;20373;-74
2023/02/16 08:00:25;;;;;;;29.65;15.32;;;;;;;;;;5067089;28;20044;-74
2023/02/16 08:02:51;;;;;;;34.20;14.23;;;;;;;;;;5060703;28;20155;-74
2023/02/16 08:05:18;;;;;;;31.23;13.40;;;;;;;;;;5059319;28;20044;-75
2023/02/16 08:07:44;;;;;;;28.73;10.80;;;;;;;;;;5059366;28;20075;-72
2023/02/16 08:10:11;;;;;;;24.73;10.68;;;;;;;;;;5063148;28;20032;-74
2023/02/16 08:12:37;;;;;;;24.42;11.75;;;;;;;;;;5058290;28;20031;-75
2023/02/16 08:15:03;;;;;;;25.40;11.00;;;;;;;;;;5059701;28;20136;-75
2023/02/16 08:17:29;;;;;;;29.27;10.07;;;;;;;;;;5066394;28;20070;-74
2023/02/16 08:19:55;;;;;;;37.35;16.35;;;;;;;;;;5061646;28;20036;-74
2023/02/16 08:22:22;;;;;;;25.65;15.40;;;;;;;;;;5061811;28;20028;-75
2023/02/16 08:24:48;;;;;;;45.78;20.13;;;;;;;;;;5065086;28;20033;-75
2023/02/16 08:27:14;;;;;;;45.28;19.63;;;;;;;;;;5059699;28;20043;-75
2023/02/16 08:29:41;;;;;;;33.47;15.18;;;;;;;;;;5065900;28;20029;-74
2023/02/16 08:32:07;;;;;;;30.25;15.07;;;;;;;;;;5055977;28;20074;-75
2023/02/16 08:34:34;;;;;;;30.92;13.20;;;;;;;;;;5063957;28;20043;-75
2023/02/16 08:37:01;;;;;;;31.10;13.38;;;;;;;;;;5058588;28;20130;-75
2023/02/16 08:39:28;;;;;;;21.77;9.93;;;;;;;;;;5065536;28;20067;-74
2023/02/16 08:41:54;;;;;;;18.45;8.02;;;;;;;;;;5061583;28;20021;-75
2023/02/16 08:44:22;;;;;;;18.50;6.72;;;;;;;;;;5056598;28;20116;-74
2023/02/16 08:46:48;;;;;;;27.23;9.15;;;;;;;;;;5055904;28;20067;-75
2023/02/16 08:49:16;;;;;;;29.50;10.27;;;;;;;;;;5064835;28;20123;-74
2023/02/16 08:51:44;;;;;;;26.50;8.85;;;;;;;;;;5062842;28;20060;-74
2023/02/16 08:54:14;;;;;;;20.10;9.20;;;;;;;;;;5039600;28;20515;-74
2023/02/16 08:56:44;;;;;;;22.95;10.48;;;;;;;;;;5063326;28;20025;-75
2023/02/16 08:59:10;;;;;;;28.48;10.82;;;;;;;;;;5061012;28;20078;-74
2023/02/16 09:01:36;;;;;;;24.23;9.10;;;;;;;;;;5060182;28;20028;-74
2023/02/16 09:04:02;;;;;;;20.15;8.70;;;;;;;;;;5063533;28;20135;-74
2023/02/16 09:06:28;;;;;;;26.80;11.43;;;;;;;;;;5061956;28;20033;-74
2023/02/16 09:08:55;;;;;;;29.90;13.98;;;;;;;;;;5054544;28;20099;-75
2023/02/16 09:11:22;;;;;;;28.88;14.10;;;;;;;;;;5059606;28;20028;-74
2023/02/16 09:13:48;;;;;;;22.13;11.93;;;;;;;;;;5054505;28;20163;-73
2023/02/16 09:16:16;;;;;;;25.20;9.18;;;;;;;;;;5059317;28;20121;-75
2023/02/16 09:18:43;;;;;;;24.08;9.15;;;;;;;;;;5058509;28;20029;-72
2023/02/16 09:21:19;;;;;;;15.52;8.15;;;;;;;;;;5061580;28;20033;-75
2023/02/16 09:23:47;;;;;;;26.08;8.68;;;;;;;;;;5064037;28;20497;-74
2023/02/16 09:26:14;;;;;;;23.67;8.80;;;;;;;;;;5056953;28;20117;-72
2023/02/16 09:28:40;;;;;;;17.98;7.45;;;;;;;;;;5064322;28;20041;-74
2023/02/16 09:31:14;;;;;;;21.25;8.00;;;;;;;;;;5059628;28;20044;-72
2023/02/16 09:33:41;;;;;;;23.38;7.75;;;;;;;;;;5055945;28;20037;-75
2023/02/16 09:36:07;;;;;;;15.27;6.13;;;;;;;;;;5059159;28;20033;-72
2023/02/16 09:38:34;;;;;;;13.90;6.47;;;;;;;;;;5064787;28;20037;-75
2023/02/16 09:41:20;;;;;;;12.85;5.95;;;;;;;;;;5059341;28;20044;-73
2023/02/16 09:43:51;;;;;;;13.80;5.80;;;;;;;;;;5020686;28;20045;-74
2023/02/16 09:46:20;;;;;;;20.85;6.32;;;;;;;;;;5040138;28;20818;-74
2023/02/16 09:48:48;;;;;;;20.98;5.97;;;;;;;;;;5060796;28;20033;-72
2023/02/16 09:51:20;;;;;;;16.20;6.40;;;;;;;;;;5061196;28;20024;-72
2023/02/16 09:53:54;;;;;;;13.55;5.35;;;;;;;;;;5065153;28;20028;-75
2023/02/16 09:56:24;;;;;;;15.45;5.68;;;;;;;;;;5040723;28;20043;-74
2023/02/16 09:59:11;;;;;;;15.52;5.38;;;;;;;;;;5054816;28;20041;-74
2023/02/16 10:01:59;;;;;;;18.98;6.53;;;;;;;;;;5059013;28;20033;-74
2023/02/16 10:04:34;;;;;;;20.00;8.88;;;;;;;;;;5054610;28;20721;-75
2023/02/16 10:07:00;;;;;;;20.38;6.88;;;;;;;;;;5061093;28;20466;-75
2023/02/16 10:09:28;;;;;;;18.23;7.22;;;;;;;;;;5058443;28;20120;-75
2023/02/16 10:12:01;;;;;;;16.70;6.75;;;;;;;;;;5054752;28;20173;-75
2023/02/16 10:14:48;;;;;;;19.77;6.32;;;;;;;;;;5062931;28;20036;-75
2023/02/16 10:17:52;;;;;;;24.95;11.32;;;;;;;;;;5057117;28;20031;-74
2023/02/16 10:20:38;;;;;;;20.52;7.63;;;;;;;;;;4963531;28;20035;-74
2023/02/16 10:23:08;;;;;;;17.75;6.45;;;;;;;;;;4963417;28;20106;-75
2023/02/16 10:25:42;;;;;;;19.23;6.72;;;;;;;;;;5024003;28;20457;-75
2023/02/16 10:28:16;;;;;;;21.48;6.85;;;;;;;;;;5059645;28;20032;-75
2023/02/16 10:30:45;;;;;;;24.90;10.55;;;;;;;;;;5063064;28;20032;-75
2023/02/16 10:33:16;;;;;;;16.63;6.15;;;;;;;;;;5059285;28;20809;-75
2023/02/16 10:35:49;;;;;;;17.83;6.22;;;;;;;;;;5066205;28;20036;-74
2023/02/16 10:38:30;;;;;;;20.83;6.30;;;;;;;;;;5064162;28;20051;-74
2023/02/16 10:41:13;;;;;;;16.85;6.43;;;;;;;;;;5058457;28;20036;-75
2023/02/16 10:43:39;;;;;;;;;;;;;;;;;;5059801;28;20033;-74
2023/02/16 10:46:05;;;;;;;24.33;11.27;;;;;;;;;;5056741;28;19920;-74
2023/02/16 10:48:31;;;;;;;16.67;8.20;;;;;;;;;;5069670;28;20036;-74
2023/02/16 10:51:00;;;;;;;16.27;6.90;;;;;;;;;;5066581;28;20033;-74
2023/02/16 10:53:32;;;;;;;19.80;5.70;;;;;;;;;;5062483;28;20356;-74
2023/02/16 10:55:58;;;;;;;;;;;;;;;;;;5064261;28;20028;-74
2023/02/16 10:58:33;;;;;;;10.82;4.55;;;;;;;;;;5063092;28;19920;-74
2023/02/16 11:01:05;;;;;;;15.18;4.30;;;;;;;;;;5059665;28;20040;-74
2023/02/16 11:03:34;;;;;;;;;;;;;;;;;;5062894;28;20077;-75
2023/02/16 11:06:21;;;;;;;11.38;4.00;;;;;;;;;;5058852;28;19917;-75
2023/02/16 11:08:55;;;;;;;18.02;4.63;;;;;;;;;;5061447;28;20127;-74
2023/02/16 11:11:21;;;;;;;13.02;4.25;;;;;;;;;;5061773;28;20138;-74
2023/02/16 11:13:48;;;;;;;13.95;3.42;;;;;;;;;;5062645;28;20040;-75
2023/02/16 11:16:21;;;;;;;8.35;3.33;;;;;;;;;;5062517;28;20457;-75
2023/02/16 11:18:58;;;;;;;8.52;3.42;;;;;;;;;;5066942;28;20067;-75
2023/02/16 11:21:43;;;;;;;17.88;4.13;;;;;;;;;;5066313;28;20103;-75
2023/02/16 11:24:11;;;;;;;9.48;3.42;;;;;;;;;;5060278;28;20048;-74
2023/02/16 11:26:37;;;;;;;12.10;2.85;;;;;;;;;;5063335;28;20117;-74
2023/02/16 11:29:17;;;;;;;11.60;3.50;;;;;;;;;;5066732;28;20050;-74
2023/02/16 11:31:43;;;;;;;8.57;2.67;;;;;;;;;;5057174;28;20034;-75
2023/02/16 11:34:09;;;;;;;9.45;3.00;;;;;;;;;;5060859;28;20040;-74
2023/02/16 11:36:36;;;;;;;9.75;3.00;;;;;;;;;;5060337;28;20029;-75
2023/02/16 11:39:05;;;;;;;13.93;3.50;;;;;;;;;;5061927;28;20037;-74
2023/02/16 11:41:32;;;;;;;10.98;3.00;;;;;;;;;;5056955;28;20039;-74
2023/02/16 11:43:59;;;;;;;15.85;3.42;;;;;;;;;;5057236;28;20040;-75
2023/02/16 11:46:25;;;;;;;7.53;2.92;;;;;;;;;;5064084;28;20044;-74
2023/02/16 11:48:51;;;;;;;8.55;2.97;;;;;;;;;;5061204;28;20595;-74
2023/02/16 11:51:38;;;;;;;10.70;3.20;;;;;;;;;;5062648;28;20070;-74
2023/02/16 11:54:06;;;;;;;7.75;2.00;;;;;;;;;;5059714;28;20131;-75
2023/02/16 11:56:33;;;;;;;8.48;2.53;;;;;;;;;;5063076;28;20016;-74
2023/02/16 11:59:02;;;;;;;13.18;2.30;;;;;;;;;;5062986;28;20492;-75
2023/02/16 12:01:47;;;;;;;9.38;2.55;;;;;;;;;;5061285;28;20029;-75
2023/02/16 12:04:13;;;;;;;13.10;3.05;;;;;;;;;;5061261;28;20120;-75
2023/02/16 12:06:46;;;;;;;8.70;2.28;;;;;;;;;;5066472;28;20553;-75
2023/02/16 12:09:24;;;;;;;10.27;2.63;;;;;;;;;;5065970;28;20506;-75
2023/02/16 12:12:19;;;;;;;9.18;2.78;;;;;;;;;;5064534;28;20997;-74
2023/02/16 12:14:48;;;;;;;12.23;2.88;;;;;;;;;;4977991;28;20050;-74
2023/02/16 12:17:25;;;;;;;6.43;2.00;;;;;;;;;;5056288;28;20029;-75
2023/02/16 12:19:59;;;;;;;13.48;2.78;;;;;;;;;;5065968;28;20024;-75
2023/02/16 12:22:46;;;;;;;7.68;2.17;;;;;;;;;;5064599;28;20782;-74
2023/02/16 12:25:36;;;;;;;5.88;2.00;;;;;;;;;;5060896;28;20099;-74
2023/02/16 12:28:13;;;;;;;10.63;2.00;;;;;;;;;;5062279;28;20025;-74
2023/02/16 12:30:47;;;;;;;8.35;1.95;;;;;;;;;;5062828;28;20039;-74
2023/02/16 12:33:32;;;;;;;7.47;2.15;;;;;;;;;;5058206;28;20040;-74
2023/02/16 12:36:07;;;;;;;7.28;2.03;;;;;;;;;;5060203;28;20028;-74
2023/02/16 12:38:32;;;;;;;4.53;1.83;;;;;;;;;;5052698;28;20699;-74
2023/02/16 12:41:17;;;;;;;6.90;1.67;;;;;;;;;;5066874;28;20028;-74
2023/02/16 12:43:48;;;;;;;7.22;1.63;;;;;;;;;;5057100;28;20047;-74
2023/02/16 12:46:17;;;;;;;4.95;1.38;;;;;;;;;;5062591;28;20027;-74
2023/02/16 12:48:49;;;;;;;3.88;1.33;;;;;;;;;;5055045;28;20041;-74
2023/02/16 12:51:18;;;;;;;6.93;1.73;;;;;;;;;;5056651;28;20512;-74
2023/02/16 12:54:08;;;;;;;5.45;1.60;;;;;;;;;;5057882;28;20041;-75
2023/02/16 12:56:49;;;;;;;7.00;1.55;;;;;;;;;;5045861;28;20127;-74
2023/02/16 12:59:22;;;;;;;4.32;1.70;;;;;;;;;;5061475;28;20042;-75
2023/02/16 13:01:51;;;;;;;7.00;1.80;;;;;;;;;;5061049;28;20035;-75
2023/02/16 13:04:35;;;;;;;3.95;1.50;;;;;;;;;;5061776;28;20037;-75
2023/02/16 13:07:08;;;;;;;4.82;1.63;;;;;;;;;;5061389;28;20047;-75
2023/02/16 13:09:40;;;;;;;6.35;1.63;;;;;;;;;;5058517;28;20037;-74
2023/02/16 13:12:06;;;;;;;;;;;;;;;;;;5058712;28;20038;-74
2023/02/16 13:14:33;;;;;;;5.47;1.80;;;;;;;;;;5054400;28;20231;-75
2023/02/16 13:17:06;;;;;;;6.25;1.90;;;;;;;;;;5052809;28;20032;-74
2023/02/16 13:19:32;;;;;;;7.18;1.65;;;;;;;;;;5058848;28;20036;-74
2023/02/16 13:22:17;;;;;;;7.07;2.13;;;;;;;;;;5058077;28;20074;-74
2023/02/16 13:25:02;;;;;;;7.88;2.13;;;;;;;;;;5056223;28;20409;-75
2023/02/16 13:27:46;;;;;;;10.55;3.25;;;;;;;;;;5058645;28;20067;-75
2023/02/16 13:30:27;;;;;;;9.13;3.17;;;;;;;;;;5054845;28;20378;-74
2023/02/16 13:33:03;;;;;;;7.40;3.15;;;;;;;;;;5059380;28;20434;-75
2023/02/16 13:35:35;;;;;;;6.75;2.67;;;;;;;;;;5058708;28;20077;-75
2023/02/16 13:38:01;;;;;;;;;;;;;;;;;;5061174;28;20086;-75
2023/02/16 13:40:53;;;;;;;4.47;1.60;;;;;;;;;;5061044;28;19916;-74
2023/02/16 13:43:22;;;;;;;8.45;1.60;;;;;;;;;;5058834;28;20055;-75
2023/02/16 13:45:52;;;;;;;6.20;1.58;;;;;;;;;;5063524;28;20083;-75
2023/02/16 13:48:23;;;;;;;5.78;1.27;;;;;;;;;;5058839;28;20024;-75
2023/02/16 13:51:02;;;;;;;5.53;1.48;;;;;;;;;;5062574;28;20094;-75
2023/02/16 13:53:40;;;;;;;7.40;2.50;;;;;;;;;;5056242;28;20051;-75
2023/02/16 13:56:34;;;;;;;6.35;1.58;;;;;;;;;;5058495;28;20177;-75
2023/02/16 13:59:21;;;;;;;7.93;2.33;;;;;;;;;;5057174;28;20040;-75
2023/02/16 14:01:49;;;;;;;5.03;1.80;;;;;;;;;;5002948;28;20075;-75
2023/02/16 14:04:24;;;;;;;6.50;1.50;;;;;;;;;;5059158;28;20044;-75
2023/02/16 14:06:51;;;;;;;3.67;1.25;;;;;;;;;;5064475;28;20044;-75
2023/02/16 14:09:18;;;;;;;5.05;1.50;;;;;;;;;;5056107;28;20496;-75
2023/02/16 14:11:57;;;;;;;9.15;2.35;;;;;;;;;;5057486;28;20532;-75
2023/02/16 14:14:41;;;;;;;6.60;2.38;;;;;;;;;;5055774;28;20804;-75
2023/02/16 14:17:23;;;;;;;10.82;3.15;;;;;;;;;;5054814;28;20582;-74
2023/02/16 14:19:56;;;;;;;7.15;2.60;;;;;;;;;;5067712;28;20439;-75
2023/02/16 14:22:32;;;;;;;9.85;2.85;;;;;;;;;;5066499;28;20845;-75
2023/02/16 14:24:59;;;;;;;7.00;1.80;;;;;;;;;;5060373;28;20040;-75
2023/02/16 14:28:04;;;;;;;6.95;1.40;;;;;;;;;;5064846;28;20033;-75
2023/02/16 14:30:39;;;;;;;5.55;1.60;;;;;;;;;;4945207;28;20253;-74
2023/02/16 14:33:15;;;;;;;7.95;1.63;;;;;;;;;;4946820;29;20031;-75
2023/02/16 14:36:01;;;;;;;6.25;1.55;;;;;;;;;;5009462;28;20052;-75
2023/02/16 14:38:28;;;;;;;4.78;1.33;;;;;;;;;;5051630;28;20056;-75
2023/02/16 14:40:58;;;;;;;5.82;1.42;;;;;;;;;;5064984;28;20520;-75
2023/02/16 14:43:27;;;;;;;6.25;1.30;;;;;;;;;;5066960;28;20055;-75
2023/02/16 14:46:12;;;;;;;7.53;2.20;;;;;;;;;;5056139;28;20154;-75
2023/02/16 14:48:57;;;;;;;4.35;1.13;;;;;;;;;;5065773;28;20471;-75
2023/02/16 14:51:41;;;;;;;4.05;1.40;;;;;;;;;;5060159;28;20029;-75
2023/02/16 14:54:26;;;;;;;3.88;1.42;;;;;;;;;;5057824;28;20376;-75
2023/02/16 14:56:54;;;;;;;4.38;1.30;;;;;;;;;;5062419;28;20112;-74
2023/02/16 14:59:29;;;;;;;3.20;1.10;;;;;;;;;;5061835;28;20374;-75
2023/02/16 15:01:55;;;;;;;5.03;1.40;;;;;;;;;;5054921;28;20035;-74
2023/02/16 15:04:28;;;;;;;5.88;1.40;;;;;;;;;;5064700;28;20040;-75
2023/02/16 15:06:56;;;;;;;5.00;1.75;;;;;;;;;;5060417;28;20998;-75
2023/02/16 15:09:25;;;;;;;3.83;1.40;;;;;;;;;;5055580;28;20033;-75
2023/02/16 15:14:44;;;;;;;4.57;1.20;;;;;;;;;;5055380;28;20545;-75
2023/02/16 15:17:10;;;;;;;5.55;1.00;;;;;;;;;;5053771;28;20028;-75
2023/02/16 15:19:38;;;;;;;7.72;1.10;;;;;;;;;;5063350;28;20134;-75
2023/02/16 15:22:30;;;;;;;3.83;1.25;;;;;;;;;;5060784;28;20032;-75
2023/02/16 15:25:04;;;;;;;6.82;1.27;;;;;;;;;;5059855;28;20071;-75
2023/02/16 15:27:31;;;;;;;4.63;1.13;;;;;;;;;;5058553;28;20125;-74
2023/02/16 15:30:16;;;;;;;6.53;1.55;;;;;;;;;;5063995;28;20115;-74
2023/02/16 15:32:48;;;;;;;4.65;1.58;;;;;;;;;;5061897;28;20060;-75
2023/02/16 15:35:14;;;;;;;;;;;;;;;;;;5061944;28;20160;-75
2023/02/16 15:37:40;;;;;;;7.07;1.77;;;;;;;;;;5064736;28;20007;-75